Time;durP1;ratioP1;P1;durP2;ratioP2;P2;SDS_P1;SDS_P2;PMS_P1;PMS_P2;Temp;Humidity;BMP_temperature;BMP_pressure;BME280_temperature;BME280_humidity;BME280_pressure;Samples;Min_cycle;Max_cycle;Signal;HPM_P1;HPM_P2
2023/05/01 00:01:54;;;;;;;1.92;0.90;;;11.90;91.40;;;;;;1914906;75;20996;-48
2023/05/01 00:04:23;;;;;;;1.60;0.70;;;11.80;91.30;;;;;;1914752;75;20988;-48
2023/05/01 00:06:52;;;;;;;2.72;1.00;;;11.90;91.30;;;;;;1914796;75;21140;-47
2023/05/01 00:09:22;;;;;;;4.28;1.52;;;11.90;91.30;;;;;;1914845;75;21271;-48
2023/05/01 00:11:51;;;;;;;1.87;0.70;;;11.90;91.20;;;;;;1914833;75;21105;-48
2023/05/01 00:14:20;;;;;;;3.58;0.80;;;11.90;91.10;;;;;;1914744;75;21100;-47
2023/05/01 00:16:49;;;;;;;1.85;1.02;;;11.90;91.20;;;;;;1914687;75;21143;-47
2023/05/01 00:19:18;;;;;;;1.80;1.00;;;11.90;91.10;;;;;;1914754;75;21127;-47
2023/05/01 00:21:48;;;;;;;1.30;1.02;;;11.90;91.00;;;;;;1914752;75;21039;-47
2023/05/01 00:24:17;;;;;;;2.95;1.20;;;11.90;91.00;;;;;;1914746;75;21084;-48
2023/05/01 00:26:46;;;;;;;2.22;1.20;;;11.90;91.00;;;;;;1914766;75;21032;-47
2023/05/01 00:29:16;;;;;;;3.80;1.40;;;11.90;90.90;;;;;;1914735;75;21060;-47
2023/05/01 00:31:46;;;;;;;3.77;1.10;;;11.90;90.90;;;;;;1914684;75;21133;-48
2023/05/01 00:34:15;;;;;;;4.25;1.47;;;11.90;90.90;;;;;;1914872;75;21072;-47
2023/05/01 00:36:44;;;;;;;2.80;1.10;;;11.90;90.90;;;;;;1914781;75;21100;-47
2023/05/01 00:39:14;;;;;;;6.15;1.52;;;11.90;90.90;;;;;;1914850;75;21099;-49
2023/05/01 00:41:43;;;;;;;5.03;1.00;;;11.90;90.90;;;;;;1914928;75;21090;-47
2023/05/01 00:44:12;;;;;;;5.25;1.20;;;11.90;90.80;;;;;;1914974;75;21076;-47
2023/05/01 00:46:42;;;;;;;2.22;1.45;;;11.90;90.90;;;;;;1915001;75;21121;-47
2023/05/01 00:49:12;;;;;;;2.45;1.42;;;11.90;90.90;;;;;;1914907;75;21137;-47
2023/05/01 00:51:42;;;;;;;3.50;1.22;;;11.90;90.90;;;;;;1914922;75;21138;-48
2023/05/01 00:54:11;;;;;;;3.35;2.17;;;11.80;90.90;;;;;;1915171;75;21144;-49
2023/05/01 00:56:40;;;;;;;4.58;1.65;;;11.90;91.00;;;;;;1914867;75;21204;-47
2023/05/01 00:59:10;;;;;;;3.90;1.40;;;11.90;91.20;;;;;;1915024;75;21185;-48
2023/05/01 01:01:40;;;;;;;3.70;1.57;;;11.90;91.20;;;;;;1914929;75;21638;-47
2023/05/01 01:04:10;;;;;;;5.42;1.82;;;11.80;91.10;;;;;;1915134;75;21180;-47
2023/05/01 01:06:53;;;;;;;2.95;1.50;;;11.80;91.70;;;;;;1915062;75;21193;-48
2023/05/01 01:09:28;;;;;;;5.53;1.82;;;11.70;91.40;;;;;;1915040;75;21157;-48
2023/05/01 01:12:22;;;;;;;4.70;1.75;;;11.70;91.50;;;;;;1914891;75;21170;-47
2023/05/01 01:15:00;;;;;;;2.40;1.60;;;11.70;91.60;;;;;;1914463;75;21165;-48
2023/05/01 01:17:51;;;;;;;2.40;1.75;;;11.70;91.70;;;;;;1901862;75;21404;-47
2023/05/01 01:20:36;;;;;;;5.75;2.05;;;11.70;91.70;;;;;;1915011;75;21233;-48
2023/05/01 01:23:14;;;;;;;3.58;1.87;;;11.70;91.70;;;;;;1915251;75;21193;-47
2023/05/01 01:26:06;;;;;;;4.53;1.92;;;11.60;91.60;;;;;;1913564;75;21172;-47
2023/05/01 01:29:00;;;;;;;4.37;1.92;;;11.70;91.80;;;;;;1914927;75;21162;-52
2023/05/01 01:31:36;;;;;;;4.35;2.47;;;11.70;91.80;;;;;;1915030;75;21116;-51
2023/05/01 01:34:17;;;;;;;4.53;2.00;;;11.60;91.70;;;;;;1915127;75;21268;-51
2023/05/01 01:36:57;;;;;;;4.25;2.20;;;11.60;91.70;;;;;;1914980;75;21513;-48
2023/05/01 01:39:47;;;;;;;6.33;2.65;;;11.60;91.60;;;;;;1914810;75;21020;-50
2023/05/01 01:42:19;;;;;;;3.98;2.33;;;11.60;91.60;;;;;;1915134;75;21524;-51
2023/05/01 01:45:01;;;;;;;5.65;2.50;;;11.60;91.60;;;;;;1914957;75;21161;-48
2023/05/01 01:47:32;;;;;;;6.33;2.17;;;11.60;91.60;;;;;;1914829;75;21250;-50
2023/05/01 01:50:04;;;;;;;4.65;2.40;;;11.60;91.60;;;;;;1914918;75;21034;-51
2023/05/01 01:52:35;;;;;;;4.55;2.65;;;11.60;91.60;;;;;;1914895;75;21158;-49
2023/05/01 01:55:10;;;;;;;4.42;2.80;;;11.60;91.60;;;;;;1914961;75;21234;-49
2023/05/01 01:57:46;;;;;;;5.53;3.33;;;11.60;91.60;;;;;;1907698;75;21109;-49
2023/05/01 02:00:13;;;;;;;6.42;3.37;;;11.60;91.60;;;;;;1901304;75;21175;-49
2023/05/01 02:02:49;;;;;;;4.62;2.83;;;11.60;91.60;;;;;;1902279;75;21249;-49
2023/05/01 02:05:19;;;;;;;4.85;3.00;;;11.60;91.60;;;;;;1902174;75;21580;-49
2023/05/01 02:07:51;;;;;;;4.33;2.40;;;11.50;91.60;;;;;;1902276;75;21089;-49
2023/05/01 02:10:21;;;;;;;5.62;3.30;;;11.50;91.60;;;;;;1902301;75;21311;-49
2023/05/01 02:12:53;;;;;;;9.75;4.00;;;11.50;91.60;;;;;;1902336;75;21207;-48
2023/05/01 02:15:24;;;;;;;4.90;3.77;;;11.50;91.50;;;;;;1902322;75;21044;-49
2023/05/01 02:17:53;;;;;;;5.60;3.40;;;11.50;91.60;;;;;;1902134;75;21073;-49
2023/05/01 02:20:23;;;;;;;10.03;3.72;;;11.50;91.60;;;;;;1902143;75;21133;-49
2023/05/01 02:22:53;;;;;;;6.45;3.35;;;11.50;91.60;;;;;;1902116;75;21155;-48
2023/05/01 02:25:22;;;;;;;5.53;3.35;;;11.50;91.60;;;;;;1902261;75;21089;-50
2023/05/01 02:27:56;;;;;;;8.78;3.42;;;11.50;91.60;;;;;;1902114;75;21114;-49
2023/05/01 02:30:25;;;;;;;9.28;4.15;;;11.50;91.60;;;;;;1901133;75;21112;-49
2023/05/01 02:32:56;;;;;;;4.55;3.47;;;11.50;91.60;;;;;;1902263;75;21165;-48
2023/05/01 02:35:25;;;;;;;6.95;3.40;;;11.60;91.70;;;;;;1902087;75;21139;-49
2023/05/01 02:37:54;;;;;;;4.58;3.00;;;11.60;91.50;;;;;;1902233;75;21077;-49
2023/05/01 02:40:23;;;;;;;6.20;3.50;;;11.70;91.40;;;;;;1902124;75;21512;-50
2023/05/01 02:42:53;;;;;;;7.62;3.55;;;11.80;91.40;;;;;;1902262;75;21013;-49
2023/05/01 02:45:25;;;;;;;9.60;3.67;;;11.80;91.20;;;;;;1902234;75;21020;-50
2023/05/01 02:47:58;;;;;;;7.67;3.33;;;11.80;91.10;;;;;;1902090;75;21141;-49
2023/05/01 02:50:28;;;;;;;2.83;2.27;;;11.80;91.20;;;;;;1902164;75;21103;-49
2023/05/01 02:52:58;;;;;;;8.38;3.15;;;11.90;90.90;;;;;;1902233;75;21081;-49
2023/05/01 02:55:29;;;;;;;3.90;2.75;;;12.00;90.40;;;;;;1901038;75;21098;-49
2023/05/01 02:58:00;;;;;;;3.40;2.70;;;11.90;90.20;;;;;;1902279;75;21048;-49
2023/05/01 03:00:29;;;;;;;4.47;4.08;;;11.90;90.30;;;;;;1902237;75;21072;-49
2023/05/01 03:02:59;;;;;;;4.03;2.87;;;11.90;90.30;;;;;;1902331;75;21516;-48
2023/05/01 03:05:28;;;;;;;2.92;2.17;;;11.90;90.30;;;;;;1902187;75;21025;-48
2023/05/01 03:07:57;;;;;;;3.12;2.33;;;11.80;90.30;;;;;;1902178;75;21094;-48
2023/05/01 03:10:26;;;;;;;4.60;2.40;;;11.80;90.20;;;;;;1902138;75;21017;-47
2023/05/01 03:12:56;;;;;;;4.70;2.30;;;11.80;90.20;;;;;;1902132;75;21102;-48
2023/05/01 03:15:25;;;;;;;4.10;2.62;;;11.80;90.20;;;;;;1902243;75;21020;-48
2023/05/01 03:17:54;;;;;;;5.60;3.08;;;11.80;90.20;;;;;;1902164;75;21075;-48
2023/05/01 03:20:24;;;;;;;5.50;2.40;;;11.90;90.10;;;;;;1902127;75;21499;-50
2023/05/01 03:22:53;;;;;;;4.08;2.15;;;11.90;90.10;;;;;;1902175;75;21024;-48
2023/05/01 03:25:22;;;;;;;5.78;2.83;;;12.00;90.00;;;;;;1902137;75;21013;-49
2023/05/01 03:27:52;;;;;;;2.20;2.00;;;12.00;89.60;;;;;;1902224;75;21045;-49
2023/05/01 03:30:21;;;;;;;3.67;2.20;;;12.10;90.00;;;;;;1902121;75;21084;-49
2023/05/01 03:32:51;;;;;;;3.65;2.55;;;12.10;89.80;;;;;;1877073;75;21082;-48
2023/05/01 03:35:21;;;;;;;4.85;2.67;;;12.20;89.60;;;;;;1901606;75;21130;-48
2023/05/01 03:37:51;;;;;;;3.15;2.20;;;12.30;89.60;;;;;;1902235;75;21055;-48
2023/05/01 03:40:28;;;;;;;3.87;2.52;;;12.40;89.50;;;;;;1898098;75;21101;-48
2023/05/01 03:43:10;;;;;;;3.30;2.30;;;12.60;89.40;;;;;;1843762;75;21521;-48
2023/05/01 03:45:40;;;;;;;4.92;2.70;;;12.70;89.30;;;;;;1902157;75;21088;-48
2023/05/01 03:48:09;;;;;;;5.55;2.55;;;12.90;89.00;;;;;;1902120;75;21091;-48
2023/05/01 03:50:38;;;;;;;4.25;2.60;;;13.00;88.50;;;;;;1902141;75;21102;-48
2023/05/01 03:53:07;;;;;;;4.95;2.12;;;13.10;88.90;;;;;;1902130;75;21013;-50
2023/05/01 03:55:37;;;;;;;4.05;2.17;;;13.10;87.90;;;;;;1902203;75;21090;-49
2023/05/01 03:58:06;;;;;;;4.50;2.37;;;13.20;87.70;;;;;;1902329;75;21021;-49
2023/05/01 04:00:36;;;;;;;5.47;2.47;;;13.20;87.50;;;;;;1906076;75;21044;-49
2023/05/01 04:03:06;;;;;;;5.12;2.50;;;13.20;87.30;;;;;;1914937;75;20992;-48
2023/05/01 04:05:36;;;;;;;4.35;2.25;;;13.20;87.80;;;;;;1914980;75;21052;-48
2023/05/01 04:08:06;;;;;;;5.78;3.08;;;13.20;87.60;;;;;;1914843;75;21118;-48
2023/05/01 04:10:35;;;;;;;6.95;2.80;;;13.10;87.80;;;;;;1914848;75;21012;-48
2023/05/01 04:13:06;;;;;;;2.67;2.27;;;13.10;87.90;;;;;;1914866;75;21075;-48
2023/05/01 04:15:37;;;;;;;7.22;2.87;;;13.10;88.00;;;;;;1914834;75;21486;-48
2023/05/01 04:18:06;;;;;;;4.50;2.10;;;13.00;87.80;;;;;;1915008;75;21016;-48
2023/05/01 04:20:35;;;;;;;3.17;2.15;;;13.00;88.50;;;;;;1914786;75;21004;-50
2023/05/01 04:23:04;;;;;;;3.70;2.52;;;13.00;88.50;;;;;;1914774;75;21214;-48
2023/05/01 04:25:34;;;;;;;5.58;3.05;;;12.90;88.40;;;;;;1914783;75;21084;-48
2023/05/01 04:28:04;;;;;;;3.92;2.70;;;12.80;88.30;;;;;;1914074;75;21083;-48
2023/05/01 04:30:34;;;;;;;9.28;2.62;;;12.80;88.50;;;;;;1914803;75;21032;-48
2023/05/01 04:33:10;;;;;;;6.75;2.90;;;12.80;88.90;;;;;;1914784;75;21012;-48
2023/05/01 04:35:34;;;;;;;9.53;3.10;;;12.70;88.90;;;;;;1913563;75;21024;-48
2023/05/01 04:38:03;;;;;;;5.92;2.83;;;12.60;89.00;;;;;;1914668;75;21145;-48
2023/05/01 04:40:33;;;;;;;3.35;2.42;;;12.60;89.20;;;;;;1914662;75;21127;-49
2023/05/01 04:43:02;;;;;;;7.83;3.67;;;12.60;89.40;;;;;;1914737;75;21028;-48
2023/05/01 04:45:32;;;;;;;5.37;3.10;;;12.50;89.40;;;;;;1914670;75;21518;-48
2023/05/01 04:48:01;;;;;;;8.08;3.70;;;12.50;89.50;;;;;;1914722;75;21051;-48
2023/05/01 04:50:31;;;;;;;6.85;3.98;;;12.50;89.70;;;;;;1914756;75;21148;-48
2023/05/01 04:53:00;;;;;;;8.18;3.37;;;12.50;90.00;;;;;;1914697;75;21040;-47
2023/05/01 04:55:29;;;;;;;5.37;2.58;;;12.50;90.00;;;;;;1914800;75;21020;-48
2023/05/01 04:58:02;;;;;;;17.50;4.12;;;12.50;90.00;;;;;;1909129;75;21137;-48
2023/05/01 05:00:31;;;;;;;6.78;3.52;;;12.50;90.00;;;;;;1914808;75;21099;-48
2023/05/01 05:03:01;;;;;;;9.55;4.97;;;12.40;90.00;;;;;;1902107;75;21324;-48
2023/05/01 05:05:30;;;;;;;6.45;4.08;;;12.40;90.50;;;;;;1902022;75;21013;-48
2023/05/01 05:07:59;;;;;;;8.80;4.85;;;12.50;90.30;;;;;;1902082;75;21089;-48
2023/05/01 05:10:33;;;;;;;7.90;4.10;;;12.40;90.20;;;;;;1900228;75;21021;-49
2023/05/01 05:13:04;;;;;;;7.53;4.00;;;12.40;90.20;;;;;;1899325;75;21651;-48
2023/05/01 05:15:33;;;;;;;7.55;4.55;;;12.40;90.30;;;;;;1901911;75;21082;-48
2023/05/01 05:18:03;;;;;;;7.55;4.78;;;12.40;90.40;;;;;;1901969;75;21107;-48
2023/05/01 05:20:35;;;;;;;15.65;8.90;;;12.40;90.40;;;;;;1901982;75;21053;-48
2023/05/01 05:23:04;;;;;;;9.75;5.15;;;12.40;90.50;;;;;;1901956;75;21527;-49
2023/05/01 05:25:33;;;;;;;8.93;3.25;;;12.40;90.60;;;;;;1901982;75;21020;-49
2023/05/01 05:28:02;;;;;;;7.47;4.30;;;12.40;90.70;;;;;;1901979;75;21032;-48
2023/05/01 05:30:31;;;;;;;6.65;2.87;;;12.40;90.90;;;;;;1901980;75;21060;-50
2023/05/01 05:33:00;;;;;;;3.55;2.27;;;12.30;90.70;;;;;;1902200;75;21155;-52
2023/05/01 05:35:29;;;;;;;6.15;3.98;;;12.30;90.70;;;;;;1902104;75;21137;-50
2023/05/01 05:37:58;;;;;;;9.00;4.12;;;12.30;91.00;;;;;;1902068;75;21110;-49
2023/05/01 05:40:28;;;;;;;4.55;3.20;;;12.30;91.10;;;;;;1902212;75;21420;-50
2023/05/01 05:42:58;;;;;;;5.50;2.50;;;12.30;91.10;;;;;;1902181;75;21186;-50
2023/05/01 05:45:28;;;;;;;3.17;2.25;;;12.30;91.20;;;;;;1902108;75;21689;-50
2023/05/01 05:47:58;;;;;;;3.20;2.17;;;12.30;91.60;;;;;;1902187;75;21201;-49
2023/05/01 05:50:28;;;;;;;3.35;2.20;;;12.30;91.30;;;;;;1902089;75;21114;-49
2023/05/01 05:52:57;;;;;;;6.15;2.95;;;12.30;91.40;;;;;;1902169;75;21036;-50
2023/05/01 05:55:26;;;;;;;5.90;2.52;;;12.30;91.70;;;;;;1902237;75;21081;-48
2023/05/01 05:57:57;;;;;;;4.72;2.83;;;12.30;91.60;;;;;;1898373;75;21079;-49
2023/05/01 06:00:26;;;;;;;2.67;1.75;;;12.30;91.80;;;;;;1902064;75;21153;-50
2023/05/01 06:02:56;;;;;;;4.30;2.22;;;12.30;91.80;;;;;;1902108;75;21068;-51
2023/05/01 06:05:26;;;;;;;5.47;2.10;;;12.30;91.50;;;;;;1902090;75;21222;-48
2023/05/01 06:07:55;;;;;;;4.90;2.58;;;12.40;91.50;;;;;;1902100;75;21048;-49
2023/05/01 06:10:25;;;;;;;4.53;2.62;;;12.50;91.60;;;;;;1902115;75;21099;-49
2023/05/01 06:12:54;;;;;;;5.03;3.20;;;12.50;91.60;;;;;;1902102;75;20997;-49
2023/05/01 06:15:23;;;;;;;6.42;3.58;;;12.60;91.60;;;;;;1902124;75;21145;-49
2023/05/01 06:17:56;;;;;;;2.00;1.60;;;12.60;91.60;;;;;;1877231;75;21120;-50
2023/05/01 06:20:25;;;;;;;3.47;1.80;;;12.60;91.60;;;;;;1902219;75;21004;-50
2023/05/01 06:22:54;;;;;;;4.72;1.65;;;12.60;91.60;;;;;;1902094;75;21072;-49
2023/05/01 06:25:25;;;;;;;4.85;1.92;;;12.60;91.70;;;;;;1901702;75;21127;-48
2023/05/01 06:27:54;;;;;;;2.20;1.40;;;12.60;91.60;;;;;;1902253;75;21105;-49
2023/05/01 06:30:24;;;;;;;1.85;1.50;;;12.70;91.60;;;;;;1902106;75;21028;-48
2023/05/01 06:32:53;;;;;;;1.57;1.35;;;12.70;91.60;;;;;;1902119;75;21029;-49
2023/05/01 06:35:22;;;;;;;2.22;1.40;;;12.70;91.70;;;;;;1902113;75;21201;-48
2023/05/01 06:37:52;;;;;;;1.50;1.37;;;12.80;91.70;;;;;;1902210;75;21036;-48
2023/05/01 06:40:21;;;;;;;3.37;1.57;;;12.80;91.80;;;;;;1902190;75;21074;-48
2023/05/01 06:42:50;;;;;;;1.85;1.50;;;12.80;91.90;;;;;;1902129;75;21207;-52
2023/05/01 06:45:19;;;;;;;2.33;2.00;;;12.80;91.90;;;;;;1902097;75;21133;-48
2023/05/01 06:47:50;;;;;;;4.03;2.02;;;12.80;91.80;;;;;;1901912;75;21323;-48
2023/05/01 06:50:19;;;;;;;4.53;2.83;;;12.70;91.90;;;;;;1902039;75;21109;-49
2023/05/01 06:52:49;;;;;;;3.30;1.55;;;12.80;91.80;;;;;;1902118;75;21105;-48
2023/05/01 06:55:18;;;;;;;1.72;1.42;;;12.80;91.80;;;;;;1902086;75;21151;-49
2023/05/01 06:57:48;;;;;;;1.80;1.50;;;12.80;91.70;;;;;;1902103;75;21021;-48
2023/05/01 07:00:18;;;;;;;4.37;1.82;;;12.80;91.60;;;;;;1902067;75;21153;-48
2023/05/01 07:02:46;;;;;;;5.37;2.10;;;12.70;91.70;;;;;;1894384;75;21212;-49
2023/05/01 07:05:15;;;;;;;4.20;1.85;;;12.70;91.70;;;;;;1882233;76;21573;-49
2023/05/01 07:07:44;;;;;;;3.15;1.82;;;12.70;91.70;;;;;;1882309;76;21105;-50
2023/05/01 07:10:13;;;;;;;3.22;1.80;;;12.70;91.70;;;;;;1882245;75;21540;-48
2023/05/01 07:12:43;;;;;;;2.80;1.60;;;12.70;91.80;;;;;;1882238;76;21079;-48
2023/05/01 07:15:17;;;;;;;1.85;1.60;;;12.70;91.80;;;;;;1882228;76;21081;-48
2023/05/01 07:17:43;;;;;;;2.77;1.67;;;12.70;91.80;;;;;;1881522;75;21044;-49
2023/05/01 07:20:12;;;;;;;2.10;1.90;;;12.80;91.70;;;;;;1882198;76;21578;-49
2023/05/01 07:22:41;;;;;;;2.60;2.05;;;12.70;91.70;;;;;;1882254;76;21510;-48
2023/05/01 07:25:11;;;;;;;3.17;2.02;;;12.70;91.80;;;;;;1882159;76;21036;-49
2023/05/01 07:27:40;;;;;;;3.77;2.08;;;12.80;91.90;;;;;;1882263;76;21143;-49
2023/05/01 07:30:10;;;;;;;3.75;2.52;;;12.80;91.90;;;;;;1882169;76;21028;-49
2023/05/01 07:32:39;;;;;;;2.87;1.95;;;12.90;91.90;;;;;;1882323;76;21093;-48
2023/05/01 07:35:09;;;;;;;2.90;2.08;;;13.00;91.80;;;;;;1882285;76;21036;-48
2023/05/01 07:37:38;;;;;;;2.77;2.00;;;13.00;91.60;;;;;;1882336;76;21017;-48
2023/05/01 07:40:08;;;;;;;2.33;2.12;;;13.00;91.40;;;;;;1882277;76;21078;-50
2023/05/01 07:42:37;;;;;;;2.55;2.00;;;13.10;91.40;;;;;;1882265;76;21040;-48
2023/05/01 07:45:07;;;;;;;3.05;2.65;;;13.10;91.60;;;;;;1882370;76;21081;-49
2023/05/01 07:47:36;;;;;;;2.33;1.90;;;13.20;91.20;;;;;;1882211;76;21008;-48
2023/05/01 07:50:07;;;;;;;4.10;1.77;;;13.20;91.20;;;;;;1882191;76;21133;-48
2023/05/01 07:52:36;;;;;;;3.52;2.08;;;13.20;91.10;;;;;;1882135;76;21494;-49
2023/05/01 07:55:06;;;;;;;2.65;1.87;;;13.30;91.10;;;;;;1882198;76;21054;-49
2023/05/01 07:57:36;;;;;;;2.33;1.80;;;13.30;91.00;;;;;;1882234;76;21150;-49
2023/05/01 08:00:06;;;;;;;3.20;1.92;;;13.30;91.00;;;;;;1882168;76;21024;-48
2023/05/01 08:02:36;;;;;;;3.00;1.90;;;13.30;90.80;;;;;;1880898;75;21052;-48
2023/05/01 08:05:06;;;;;;;1.60;1.50;;;13.20;90.90;;;;;;1882539;75;21170;-49
2023/05/01 08:07:35;;;;;;;4.55;1.47;;;13.20;90.90;;;;;;1882488;76;21044;-48
2023/05/01 08:10:05;;;;;;;2.62;1.70;;;13.20;90.90;;;;;;1882497;76;21024;-49
2023/05/01 08:12:34;;;;;;;2.98;1.80;;;13.20;90.90;;;;;;1882527;76;21086;-50
2023/05/01 08:15:04;;;;;;;2.65;1.72;;;13.20;90.90;;;;;;1882457;76;21028;-50
2023/05/01 08:17:35;;;;;;;2.40;2.08;;;13.30;90.90;;;;;;1882299;76;21083;-48
2023/05/01 08:20:05;;;;;;;2.92;1.62;;;13.30;90.90;;;;;;1882331;76;21052;-48
2023/05/01 08:22:34;;;;;;;2.80;1.45;;;13.30;90.60;;;;;;1882409;76;21122;-50
2023/05/01 08:25:03;;;;;;;2.42;1.37;;;13.30;90.60;;;;;;1882258;76;21181;-47
2023/05/01 08:27:32;;;;;;;4.33;2.20;;;13.30;90.70;;;;;;1882237;76;21157;-48
2023/05/01 08:30:01;;;;;;;2.25;1.77;;;13.30;90.60;;;;;;1882393;76;21155;-48
2023/05/01 08:32:31;;;;;;;2.20;1.70;;;13.30;90.60;;;;;;1882322;76;21114;-48
2023/05/01 08:35:00;;;;;;;2.80;1.70;;;13.20;90.70;;;;;;1882351;76;21089;-49
2023/05/01 08:37:29;;;;;;;1.98;1.15;;;13.20;90.80;;;;;;1882240;76;21048;-48
2023/05/01 08:39:58;;;;;;;2.27;1.75;;;13.30;90.80;;;;;;1882086;76;21083;-49
2023/05/01 08:42:28;;;;;;;3.75;1.00;;;13.30;90.80;;;;;;1882088;75;21036;-48
2023/05/01 08:44:59;;;;;;;6.17;1.87;;;13.30;90.80;;;;;;1882150;76;21110;-49
2023/05/01 08:47:29;;;;;;;3.90;1.57;;;13.20;90.80;;;;;;1882206;76;21040;-48
2023/05/01 08:49:59;;;;;;;5.80;2.35;;;13.20;90.90;;;;;;1882247;76;21081;-48
2023/05/01 08:52:30;;;;;;;4.53;3.67;;;13.30;90.80;;;;;;1882235;76;21028;-49
2023/05/01 08:55:00;;;;;;;6.62;2.47;;;13.20;90.80;;;;;;1882249;76;21043;-48
2023/05/01 08:57:32;;;;;;;6.03;2.47;;;13.20;90.80;;;;;;1882326;76;21023;-49
2023/05/01 09:00:04;;;;;;;3.33;2.02;;;13.20;90.80;;;;;;1882135;76;21040;-48
2023/05/01 09:02:34;;;;;;;5.65;2.67;;;13.30;90.80;;;;;;1882237;76;21099;-48
2023/05/01 09:05:06;;;;;;;4.90;1.98;;;13.30;91.00;;;;;;1882131;75;21107;-49
2023/05/01 09:07:36;;;;;;;2.00;1.27;;;13.40;90.90;;;;;;1882264;76;21031;-50
2023/05/01 09:10:06;;;;;;;3.67;1.87;;;13.50;91.00;;;;;;1882145;76;21004;-49
2023/05/01 09:12:35;;;;;;;4.70;1.98;;;13.60;90.90;;;;;;1882278;76;21102;-48
2023/05/01 09:15:06;;;;;;;7.33;1.95;;;13.70;90.70;;;;;;1882342;76;21028;-48
2023/05/01 09:17:36;;;;;;;8.13;5.75;;;13.70;90.30;;;;;;1882355;76;21004;-50
2023/05/01 09:20:06;;;;;;;7.15;3.40;;;13.80;90.40;;;;;;1882264;76;21021;-48
2023/05/01 09:22:35;;;;;;;4.05;1.87;;;13.90;90.40;;;;;;1882420;76;21035;-49
2023/05/01 09:25:05;;;;;;;1.20;1.10;;;13.90;90.20;;;;;;1882406;76;21048;-49
2023/05/01 09:27:36;;;;;;;1.90;1.37;;;14.00;88.80;;;;;;1882154;76;21111;-49
2023/05/01 09:30:07;;;;;;;2.60;1.47;;;14.00;89.80;;;;;;1882515;76;21019;-49
2023/05/01 09:32:36;;;;;;;2.17;1.30;;;14.10;89.60;;;;;;1882334;76;21463;-48
2023/05/01 09:35:16;;;;;;;5.22;1.65;;;14.20;88.70;;;;;;1882368;76;21060;-49
2023/05/01 09:37:48;;;;;;;2.02;1.50;;;14.20;89.40;;;;;;1882389;75;21012;-49
2023/05/01 09:40:17;;;;;;;4.75;1.32;;;14.30;89.00;;;;;;1882527;75;21048;-49
2023/05/01 09:42:51;;;;;;;4.85;1.40;;;14.30;88.70;;;;;;1882427;76;21141;-48
2023/05/01 09:45:22;;;;;;;4.40;1.52;;;14.30;88.30;;;;;;1882516;76;21032;-49
2023/05/01 09:47:51;;;;;;;8.78;1.40;;;14.30;88.00;;;;;;1882338;76;21030;-49
2023/05/01 09:50:31;;;;;;;7.03;2.08;;;14.30;88.10;;;;;;1882388;76;21032;-48
2023/05/01 09:53:03;;;;;;;3.02;1.50;;;14.30;88.10;;;;;;1882523;76;21458;-49
2023/05/01 09:55:33;;;;;;;2.37;1.10;;;14.40;88.40;;;;;;1882410;76;21032;-49
2023/05/01 09:58:02;;;;;;;1.30;1.00;;;14.60;88.30;;;;;;1882468;76;21181;-50
2023/05/01 10:00:32;;;;;;;6.95;2.30;;;14.70;88.10;;;;;;1882317;76;21165;-50
2023/05/01 10:03:04;;;;;;;6.45;3.92;;;14.90;87.10;;;;;;1882332;76;21502;-48
2023/05/01 10:05:44;;;;;;;4.05;1.72;;;15.00;87.10;;;;;;1879632;75;21119;-48
2023/05/01 10:08:13;;;;;;;3.87;1.67;;;15.10;87.10;;;;;;1882395;76;21111;-49
2023/05/01 10:10:42;;;;;;;5.30;1.80;;;15.10;85.90;;;;;;1882462;76;21374;-48
2023/05/01 10:13:18;;;;;;;3.47;1.77;;;15.10;85.70;;;;;;1882328;76;21095;-49
2023/05/01 10:15:49;;;;;;;3.87;1.62;;;15.10;84.50;;;;;;1882349;76;21023;-49
2023/05/01 10:18:20;;;;;;;3.27;1.50;;;15.00;84.00;;;;;;1882405;76;21048;-48
2023/05/01 10:20:51;;;;;;;4.50;1.80;;;15.00;83.80;;;;;;1882354;76;21039;-48
2023/05/01 10:23:21;;;;;;;6.37;2.12;;;14.90;84.00;;;;;;1882379;76;21093;-49
2023/05/01 10:25:52;;;;;;;3.42;2.20;;;14.90;84.40;;;;;;1882378;76;21086;-48
2023/05/01 10:28:24;;;;;;;2.27;1.20;;;14.80;85.00;;;;;;1882204;76;21044;-49
2023/05/01 10:30:53;;;;;;;3.27;1.50;;;14.90;84.50;;;;;;1882187;76;21537;-49
2023/05/01 10:33:23;;;;;;;2.45;1.65;;;15.00;84.40;;;;;;1882228;76;21098;-49
2023/05/01 10:35:55;;;;;;;2.90;1.30;;;15.10;84.00;;;;;;1882376;76;21110;-49
2023/05/01 10:38:27;;;;;;;1.55;1.35;;;15.20;83.30;;;;;;1882272;76;21537;-51
2023/05/01 10:40:56;;;;;;;2.85;1.57;;;15.20;82.50;;;;;;1881029;76;21106;-50
2023/05/01 10:43:29;;;;;;;2.60;1.37;;;15.20;82.30;;;;;;1882135;76;21545;-49
2023/05/01 10:46:17;;;;;;;2.47;1.40;;;15.20;82.90;;;;;;1882324;76;21036;-49
2023/05/01 10:48:52;;;;;;;1.82;1.52;;;15.10;83.00;;;;;;1882210;76;21493;-50
2023/05/01 10:51:26;;;;;;;6.03;2.70;;;15.10;82.80;;;;;;1882431;76;21106;-48
2023/05/01 10:54:16;;;;;;;3.90;1.50;;;15.10;83.30;;;;;;1882439;76;21016;-50
2023/05/01 10:56:45;;;;;;;5.28;1.90;;;15.10;83.00;;;;;;1882342;76;21056;-49
2023/05/01 10:59:14;;;;;;;4.60;1.60;;;15.10;83.10;;;;;;1882226;76;21102;-52
2023/05/01 11:01:46;;;;;;;4.62;2.20;;;15.10;82.70;;;;;;1882225;76;21063;-48
2023/05/01 11:04:23;;;;;;;2.20;1.60;;;15.10;83.20;;;;;;1882172;76;21044;-49
2023/05/01 11:07:21;;;;;;;2.67;1.50;;;15.10;83.40;;;;;;1882232;76;21515;-48
2023/05/01 11:09:56;;;;;;;2.35;1.50;;;15.10;83.00;;;;;;1881454;76;21082;-48
2023/05/01 11:12:44;;;;;;;4.17;1.45;;;15.00;83.10;;;;;;1882254;76;21004;-48
2023/05/01 11:15:26;;;;;;;2.45;1.67;;;15.10;83.40;;;;;;1882208;76;21518;-49
2023/05/01 11:17:56;;;;;;;20.80;3.85;;;15.00;83.30;;;;;;1882219;76;21102;-48
2023/05/01 11:20:28;;;;;;;2.08;1.55;;;15.00;83.40;;;;;;1882302;76;21019;-50
2023/05/01 11:22:58;;;;;;;2.92;1.32;;;15.00;83.60;;;;;;1882213;76;21545;-49
2023/05/01 11:25:32;;;;;;;3.95;1.50;;;15.00;83.50;;;;;;1882275;76;21024;-49
2023/05/01 11:28:05;;;;;;;4.12;1.35;;;14.90;83.00;;;;;;1882219;76;21505;-50
2023/05/01 11:30:40;;;;;;;8.13;2.05;;;14.90;83.30;;;;;;1882262;76;21651;-49
2023/05/01 11:33:09;;;;;;;3.72;1.77;;;14.90;83.30;;;;;;1882192;76;21059;-49
2023/05/01 11:35:38;;;;;;;2.80;1.67;;;14.90;83.20;;;;;;1882185;76;21074;-51
2023/05/01 11:38:10;;;;;;;5.67;1.60;;;14.90;83.40;;;;;;1882298;76;21134;-50
2023/05/01 11:40:39;;;;;;;4.65;1.80;;;14.90;82.80;;;;;;1880439;76;21034;-49
2023/05/01 11:43:10;;;;;;;3.42;1.55;;;14.80;82.80;;;;;;1882233;76;21020;-50
2023/05/01 11:45:39;;;;;;;3.20;1.80;;;14.80;82.70;;;;;;1882235;76;21068;-50
2023/05/01 11:48:11;;;;;;;7.35;2.00;;;14.80;82.70;;;;;;1882248;76;21024;-50
2023/05/01 11:50:40;;;;;;;3.02;1.65;;;14.80;83.10;;;;;;1881881;76;21052;-52
2023/05/01 11:53:13;;;;;;;2.87;1.82;;;14.70;82.70;;;;;;1882178;76;21028;-50
2023/05/01 11:55:43;;;;;;;2.95;1.50;;;14.60;83.00;;;;;;1882190;76;21028;-51
2023/05/01 11:58:12;;;;;;;3.52;1.77;;;14.60;83.20;;;;;;1882405;76;21074;-50
2023/05/01 12:00:43;;;;;;;1.55;1.30;;;14.60;83.30;;;;;;1882442;76;21020;-51
2023/05/01 12:03:14;;;;;;;2.27;1.15;;;14.50;83.40;;;;;;1882164;76;21083;-49
2023/05/01 12:05:45;;;;;;;5.97;1.42;;;14.50;83.70;;;;;;1882133;75;21138;-49
2023/05/01 12:08:22;;;;;;;3.85;1.30;;;14.50;83.70;;;;;;1882079;76;21150;-50
2023/05/01 12:10:56;;;;;;;5.03;1.60;;;14.60;83.80;;;;;;1882128;76;21072;-49
2023/05/01 12:13:25;;;;;;;1.95;1.20;;;14.60;83.40;;;;;;1882180;76;21157;-50
2023/05/01 12:15:56;;;;;;;4.80;1.50;;;14.60;83.80;;;;;;1882197;76;21020;-49
2023/05/01 12:18:25;;;;;;;4.60;1.35;;;14.60;83.80;;;;;;1882121;76;21028;-49
2023/05/01 12:20:55;;;;;;;5.42;2.65;;;14.60;84.00;;;;;;1882145;76;21596;-49
2023/05/01 12:23:37;;;;;;;3.85;1.92;;;14.60;84.00;;;;;;1882076;76;21080;-51
2023/05/01 12:26:25;;;;;;;3.02;1.60;;;14.60;84.00;;;;;;1882238;76;21040;-49
2023/05/01 12:29:02;;;;;;;4.53;1.32;;;14.70;84.10;;;;;;1882145;76;21137;-49
2023/05/01 12:31:31;;;;;;;2.42;1.20;;;14.60;84.00;;;;;;1882220;76;21024;-50
2023/05/01 12:34:03;;;;;;;2.75;1.10;;;14.60;84.20;;;;;;1882203;76;21081;-49
2023/05/01 12:36:34;;;;;;;4.53;1.52;;;14.60;85.00;;;;;;1882203;76;21052;-49
2023/05/01 12:39:05;;;;;;;2.55;1.07;;;14.60;84.60;;;;;;1882190;76;21040;-50
2023/05/01 12:41:37;;;;;;;2.60;1.25;;;14.60;84.50;;;;;;1881265;76;21146;-50
2023/05/01 12:44:29;;;;;;;4.08;1.62;;;14.60;84.60;;;;;;1882265;76;21056;-50
2023/05/01 12:47:06;;;;;;;2.72;1.60;;;14.60;84.60;;;;;;1843075;76;21052;-49
2023/05/01 12:49:36;;;;;;;6.35;2.55;;;14.60;84.80;;;;;;1881718;76;21008;-49
2023/05/01 12:52:06;;;;;;;5.17;2.00;;;14.50;84.90;;;;;;1882238;76;21111;-50
2023/05/01 12:54:37;;;;;;;3.52;1.10;;;14.60;85.00;;;;;;1882296;76;21110;-49
2023/05/01 12:57:08;;;;;;;5.67;2.50;;;14.60;85.10;;;;;;1882261;76;21102;-50
2023/05/01 12:59:39;;;;;;;3.05;1.05;;;14.50;85.10;;;;;;1882403;76;21048;-50
2023/05/01 13:02:11;;;;;;;1.62;1.00;;;14.60;85.30;;;;;;1882203;76;21079;-50
2023/05/01 13:04:41;;;;;;;2.62;2.08;;;14.60;85.30;;;;;;1882433;76;21028;-52
2023/05/01 13:07:15;;;;;;;4.83;1.62;;;14.60;85.30;;;;;;1882091;75;21064;-52